createdAt,value
2017-02-14T00:00:02.984Z,45.53
2017-02-14T00:01:03.033Z,45.25
2017-02-14T00:02:03.159Z,45.15
2017-02-14T00:03:03.485Z,45.25
2017-02-14T00:04:02.702Z,45.25
2017-02-14T00:05:02.723Z,45.15
2017-02-14T00:06:02.753Z,45.15
2017-02-14T00:07:02.786Z,45.15
2017-02-14T00:08:03.263Z,45.25
2017-02-14T00:09:03.599Z,45.34
2017-02-14T00:10:02.856Z,45.15
2017-02-14T00:11:03.279Z,45.15
2017-02-14T00:12:03.880Z,44.96
2017-02-14T00:13:03.333Z,44.96
2017-02-14T00:14:02.960Z,44.28
2017-02-14T00:15:03.656Z,44.76
2017-02-14T00:16:04.123Z,44.28
2017-02-14T00:17:03.599Z,44.57
2017-02-14T00:18:03.064Z,44.67
2017-02-14T00:19:03.493Z,44.48
2017-02-14T00:20:03.528Z,44.76
2017-02-14T00:21:03.759Z,44.67
2017-02-14T00:22:03.875Z,44.86
2017-02-14T00:23:03.209Z,44.67
2017-02-14T00:24:03.630Z,44.76
2017-02-14T00:25:03.652Z,44.76
2017-02-14T00:26:03.941Z,44.65
2017-02-14T00:27:03.729Z,44.65
2017-02-14T00:28:03.724Z,44.35
2017-02-14T00:29:03.769Z,44.17
2017-02-14T00:30:03.466Z,44.07
2017-02-14T00:31:04.321Z,44.48
2017-02-14T00:32:03.963Z,44.26
2017-02-14T00:33:04.187Z,44.35
2017-02-14T00:34:03.489Z,44.26
2017-02-14T00:35:03.520Z,44.07
2017-02-14T00:36:04.198Z,43.97
2017-02-14T00:37:04.518Z,44.17
2017-02-14T00:38:04.507Z,44.07
2017-02-14T00:39:03.911Z,44.17
2017-02-14T00:40:04.043Z,44.35
2017-02-14T00:41:04.361Z,44.07
2017-02-14T00:42:04.000Z,44.17
2017-02-14T00:43:04.007Z,44.45
2017-02-14T00:44:03.975Z,44.26
2017-02-14T00:45:04.187Z,44.17
2017-02-14T00:46:04.473Z,44.35
2017-02-14T00:47:04.235Z,44.35
2017-02-14T00:48:03.852Z,44.26
2017-02-14T00:49:03.891Z,43.97
2017-02-14T00:50:04.434Z,44.07
2017-02-14T00:51:04.337Z,44.26
2017-02-14T00:52:04.387Z,43.88
2017-02-14T00:53:04.011Z,44.07
2017-02-14T00:54:04.082Z,43.78
2017-02-14T00:55:04.469Z,43.68
2017-02-14T00:56:04.489Z,43.68
2017-02-14T00:57:04.532Z,43.59
2017-02-14T00:58:04.514Z,43.68
2017-02-14T00:59:04.564Z,43.88
2017-02-14T01:00:04.605Z,43.68
2017-02-14T01:01:04.252Z,43.68
2017-02-14T01:02:04.293Z,44.07
2017-02-14T01:03:04.671Z,43.59
2017-02-14T01:04:04.342Z,43.59
2017-02-14T01:05:04.315Z,43.68
2017-02-14T01:06:04.463Z,43.49
2017-02-14T01:07:04.355Z,43.97
2017-02-14T01:08:04.799Z,43.97
2017-02-14T01:09:04.462Z,43.78
2017-02-14T01:10:04.849Z,43.97
2017-02-14T01:11:04.465Z,43.97
2017-02-14T01:12:04.890Z,43.88
2017-02-14T01:13:04.915Z,43.88
2017-02-14T01:14:04.939Z,43.88
2017-02-14T01:15:04.564Z,44.07
2017-02-14T01:16:04.993Z,43.88
2017-02-14T01:17:04.868Z,43.49
2017-02-14T01:18:05.059Z,43.78
2017-02-14T01:19:05.071Z,43.68
2017-02-14T01:20:04.699Z,44.07
2017-02-14T01:21:04.728Z,43.78
2017-02-14T01:22:05.408Z,43.49
2017-02-14T01:23:04.782Z,43.78
2017-02-14T01:24:04.812Z,43.59
2017-02-14T01:25:04.832Z,43.78
2017-02-14T01:26:04.860Z,43.49
2017-02-14T01:27:05.140Z,43.78
2017-02-14T01:28:05.306Z,43.49
2017-02-14T01:29:04.934Z,43.49
2017-02-14T01:30:04.963Z,43.4
2017-02-14T01:31:04.988Z,43.49
2017-02-14T01:32:05.664Z,43.59
2017-02-14T01:33:05.441Z,43.59
2017-02-14T01:34:05.465Z,43.49
2017-02-14T01:35:05.495Z,43.49
2017-02-14T01:36:05.519Z,43.49
2017-02-14T01:37:05.656Z,43.49
2017-02-14T01:38:05.573Z,43.49
2017-02-14T01:39:05.598Z,43.66
2017-02-14T01:40:05.623Z,43.59
2017-02-14T01:41:05.651Z,43.68
2017-02-14T01:42:05.276Z,43.47
2017-02-14T01:43:05.704Z,43.57
2017-02-14T01:44:05.728Z,43.57
2017-02-14T01:45:05.358Z,43.76
2017-02-14T01:46:05.778Z,43.76
2017-02-14T01:47:05.407Z,43.49
2017-02-14T01:48:05.433Z,43.37
2017-02-14T01:49:05.461Z,43.57
2017-02-14T01:50:05.885Z,43.66
2017-02-14T01:51:05.523Z,43.28
2017-02-14T01:52:05.946Z,42.89
2017-02-14T01:53:05.956Z,43.2
2017-02-14T01:54:05.585Z,43.08
2017-02-14T01:55:05.618Z,43.28
2017-02-14T01:56:05.654Z,43.08
2017-02-14T01:57:06.076Z,43.28
2017-02-14T01:58:06.096Z,43.18
2017-02-14T01:59:06.113Z,43.28
2017-02-14T02:00:06.141Z,43.18
2017-02-14T02:01:06.169Z,43.37
2017-02-14T02:02:06.199Z,43.18
2017-02-14T02:03:06.215Z,43.37
2017-02-14T02:04:06.256Z,43.28
2017-02-14T02:05:05.889Z,43.08
2017-02-14T02:06:05.902Z,42.99
2017-02-14T02:07:06.346Z,43.18
2017-02-14T02:08:06.604Z,43.18
2017-02-14T02:09:06.370Z,43.28
2017-02-14T02:10:06.007Z,42.99
2017-02-14T02:11:06.042Z,43.18
2017-02-14T02:12:06.453Z,43.08
2017-02-14T02:13:06.731Z,43.18
2017-02-14T02:14:06.115Z,42.89
2017-02-14T02:15:06.541Z,42.8
2017-02-14T02:16:06.567Z,43.08
2017-02-14T02:17:06.189Z,43.47
2017-02-14T02:18:06.870Z,42.8
2017-02-14T02:19:06.643Z,42.89
2017-02-14T02:20:06.662Z,42.89
2017-02-14T02:21:06.297Z,42.89
2017-02-14T02:22:06.725Z,42.99
2017-02-14T02:23:07.042Z,42.99
2017-02-14T02:24:06.771Z,42.99
2017-02-14T02:25:06.791Z,42.99
2017-02-14T02:26:06.815Z,42.89
2017-02-14T02:27:06.872Z,43.08
2017-02-14T02:28:06.742Z,42.99
2017-02-14T02:29:06.931Z,42.99
2017-02-14T02:30:06.931Z,42.99
2017-02-14T02:31:06.956Z,42.89
2017-02-14T02:32:06.969Z,42.8
2017-02-14T02:33:06.862Z,42.89
2017-02-14T02:34:06.634Z,42.99
2017-02-14T02:35:06.659Z,42.99
2017-02-14T02:36:07.090Z,42.99
2017-02-14T02:37:07.121Z,42.99
2017-02-14T02:38:07.385Z,42.8
2017-02-14T02:39:07.157Z,42.89
2017-02-14T02:40:07.183Z,42.8
2017-02-14T02:41:07.215Z,42.5
2017-02-14T02:42:06.835Z,42.8
2017-02-14T02:43:07.116Z,42.5
2017-02-14T02:44:06.894Z,42.8
2017-02-14T02:45:07.314Z,43.37
2017-02-14T02:46:07.335Z,43.28
2017-02-14T02:47:07.358Z,42.6
2017-02-14T02:48:07.692Z,42.6
2017-02-14T02:49:07.027Z,43.08
2017-02-14T02:50:07.448Z,42.6
2017-02-14T02:51:07.074Z,42.6
2017-02-14T02:52:07.106Z,42.89
2017-02-14T02:53:07.120Z,42.8
2017-02-14T02:54:07.152Z,42.6
2017-02-14T02:55:07.176Z,42.7
2017-02-14T02:56:07.602Z,42.89
2017-02-14T02:57:07.627Z,42.99
2017-02-14T02:58:07.655Z,43.08
2017-02-14T02:59:07.672Z,42.99
2017-02-14T03:00:07.728Z,42.99
2017-02-14T03:01:07.343Z,42.99
2017-02-14T03:02:07.755Z,42.8
2017-02-14T03:03:07.388Z,42.87
2017-02-14T03:04:07.659Z,42.87
2017-02-14T03:05:07.461Z,43.08
2017-02-14T03:06:07.862Z,42.89
2017-02-14T03:07:07.882Z,43.28
2017-02-14T03:08:07.911Z,42.99
2017-02-14T03:09:08.049Z,42.89
2017-02-14T03:10:07.956Z,42.58
2017-02-14T03:11:07.594Z,43.18
2017-02-14T03:12:08.021Z,43.08
2017-02-14T03:13:08.069Z,43.08
2017-02-14T03:14:08.331Z,43.28
2017-02-14T03:15:08.088Z,43.08
2017-02-14T03:16:08.121Z,43.08
2017-02-14T03:17:08.141Z,43.18
2017-02-14T03:18:08.166Z,42.39
2017-02-14T03:19:08.194Z,42.58
2017-02-14T03:20:08.241Z,42.7
2017-02-14T03:21:08.247Z,42.39
2017-02-14T03:22:07.875Z,42.5
2017-02-14T03:23:08.297Z,42.68
2017-02-14T03:24:07.929Z,42.49
2017-02-14T03:25:07.950Z,42.58
2017-02-14T03:26:08.015Z,42.5
2017-02-14T03:27:08.403Z,42.58
2017-02-14T03:28:08.429Z,42.49
2017-02-14T03:29:08.454Z,42.49
2017-02-14T03:30:08.078Z,42.39
2017-02-14T03:31:08.500Z,42.39
2017-02-14T03:32:08.134Z,42.49
2017-02-14T03:33:08.556Z,42.58
2017-02-14T03:34:08.192Z,42.58
2017-02-14T03:35:08.874Z,42.49
2017-02-14T03:36:08.627Z,42.3
2017-02-14T03:37:08.262Z,42.3
2017-02-14T03:38:08.286Z,42.39
2017-02-14T03:39:08.320Z,42.1
2017-02-14T03:40:08.593Z,42.58
2017-02-14T03:41:08.769Z,42.49
2017-02-14T03:42:08.387Z,42.58
2017-02-14T03:43:08.812Z,42.49
2017-02-14T03:44:08.443Z,42.58
2017-02-14T03:45:08.717Z,42.49
2017-02-14T03:46:08.501Z,42.2
2017-02-14T03:47:08.918Z,42.49
2017-02-14T03:48:08.547Z,42.3
2017-02-14T03:49:08.577Z,42.3
2017-02-14T03:50:09.496Z,42.3
2017-02-14T03:51:08.633Z,42.2
2017-02-14T03:52:08.654Z,42
2017-02-14T03:53:08.679Z,42.1
2017-02-14T03:54:08.718Z,42
2017-02-14T03:55:09.371Z,42.1
2017-02-14T03:56:08.748Z,42.49
2017-02-14T03:57:08.782Z,42.3
2017-02-14T03:58:09.202Z,42
2017-02-14T03:59:08.831Z,42.2
2017-02-14T04:00:09.503Z,42
2017-02-14T04:01:08.887Z,42.1
2017-02-14T04:02:09.301Z,42.3
2017-02-14T04:03:09.341Z,42.3
2017-02-14T04:04:09.363Z,42.3
2017-02-14T04:05:08.988Z,42.3
2017-02-14T04:06:09.016Z,42.39
2017-02-14T04:07:09.037Z,42.2
2017-02-14T04:08:09.466Z,42.39
2017-02-14T04:09:09.088Z,42.3
2017-02-14T04:10:09.519Z,42.3
2017-02-14T04:11:09.554Z,42.39
2017-02-14T04:12:09.560Z,42
2017-02-14T04:13:09.585Z,42
2017-02-14T04:14:09.623Z,42
2017-02-14T04:15:09.653Z,42.39
2017-02-14T04:16:09.272Z,42.39
2017-02-14T04:17:09.692Z,42
2017-02-14T04:18:09.717Z,42
2017-02-14T04:19:09.347Z,42.2
2017-02-14T04:20:09.762Z,42.1
2017-02-14T04:21:10.044Z,42
2017-02-14T04:22:09.424Z,42.2
2017-02-14T04:23:09.844Z,42
2017-02-14T04:24:09.481Z,42.1
2017-02-14T04:25:09.498Z,42.1
2017-02-14T04:26:09.806Z,42
2017-02-14T04:27:09.947Z,41.91
2017-02-14T04:28:09.980Z,42.2
2017-02-14T04:29:09.606Z,42.1
2017-02-14T04:30:10.029Z,42.1
2017-02-14T04:31:09.902Z,42.2
2017-02-14T04:32:09.683Z,42
2017-02-14T04:33:10.112Z,42.39
2017-02-14T04:34:10.132Z,42.2
2017-02-14T04:35:09.756Z,42
2017-02-14T04:36:10.437Z,42
2017-02-14T04:37:09.810Z,42
2017-02-14T04:38:09.830Z,42.3
2017-02-14T04:39:10.257Z,42.39
2017-02-14T04:40:10.280Z,42
2017-02-14T04:41:10.169Z,42.3
2017-02-14T04:42:09.938Z,42.2
2017-02-14T04:43:09.963Z,42.39
2017-02-14T04:44:10.383Z,42.39
2017-02-14T04:45:10.016Z,42.3
2017-02-14T04:46:10.297Z,42.2
2017-02-14T04:47:10.067Z,42.39
2017-02-14T04:48:10.483Z,42.2
2017-02-14T04:49:10.516Z,42.2
2017-02-14T04:50:10.545Z,42.39
2017-02-14T04:51:10.416Z,42.39
2017-02-14T04:52:10.189Z,42.3
2017-02-14T04:53:10.615Z,42.3
2017-02-14T04:54:10.255Z,42.1
2017-02-14T04:55:10.668Z,42
2017-02-14T04:56:10.561Z,42.3
2017-02-14T04:57:10.714Z,42.1
2017-02-14T04:58:10.747Z,42.2
2017-02-14T04:59:10.771Z,42.3
2017-02-14T05:00:10.397Z,42.1
2017-02-14T05:01:10.825Z,42.1
2017-02-14T05:02:10.453Z,42
2017-02-14T05:03:10.475Z,42.1
2017-02-14T05:04:10.898Z,42.1
2017-02-14T05:05:10.923Z,42.1
2017-02-14T05:06:10.953Z,42.2
2017-02-14T05:07:10.977Z,42.1
2017-02-14T05:08:10.613Z,42
2017-02-14T05:09:10.630Z,42.2
2017-02-14T05:10:10.654Z,42
2017-02-14T05:11:11.084Z,41.91
2017-02-14T05:12:10.708Z,42
2017-02-14T05:13:10.745Z,41.91
2017-02-14T05:14:11.155Z,42.3
2017-02-14T05:15:11.177Z,42.2
2017-02-14T05:16:11.207Z,42.3
2017-02-14T05:17:11.249Z,42.39
2017-02-14T05:18:11.257Z,41.72
2017-02-14T05:19:11.282Z,41.91
2017-02-14T05:20:11.311Z,41.82
2017-02-14T05:21:10.968Z,42.2
2017-02-14T05:22:11.356Z,41.53
2017-02-14T05:23:11.413Z,41.91
2017-02-14T05:24:11.022Z,41.91
2017-02-14T05:25:11.055Z,41.82
2017-02-14T05:26:11.461Z,42.1
2017-02-14T05:27:11.740Z,41.91
2017-02-14T05:28:11.512Z,42
2017-02-14T05:29:11.145Z,42.1
2017-02-14T05:30:11.565Z,41.82
2017-02-14T05:31:11.590Z,41.33
2017-02-14T05:32:11.874Z,41.43
2017-02-14T05:33:11.249Z,41.72
2017-02-14T05:34:11.670Z,41.24
2017-02-14T05:35:11.299Z,41.14
2017-02-14T05:36:11.322Z,41.24
2017-02-14T05:37:12.007Z,40.95
2017-02-14T05:38:11.384Z,41.24
2017-02-14T05:39:11.792Z,41.14
2017-02-14T05:40:11.429Z,41.26
2017-02-14T05:41:11.449Z,41.16
2017-02-14T05:42:11.982Z,41.24
2017-02-14T05:43:11.900Z,41.33
2017-02-14T05:44:11.539Z,41.16
2017-02-14T05:45:11.564Z,41.06
2017-02-14T05:46:11.581Z,41.06
2017-02-14T05:47:12.265Z,41.06
2017-02-14T05:48:12.026Z,40.88
2017-02-14T05:49:12.072Z,40.88
2017-02-14T05:50:11.684Z,40.58
2017-02-14T05:51:11.705Z,40.49
2017-02-14T05:52:11.989Z,40.78
2017-02-14T05:53:12.154Z,40.78
2017-02-14T05:54:12.180Z,40.97
2017-02-14T05:55:12.204Z,41.06
2017-02-14T05:56:12.235Z,41.06
2017-02-14T05:57:12.515Z,40.68
2017-02-14T05:58:12.285Z,40.68
2017-02-14T05:59:12.311Z,40.39
2017-02-14T06:00:11.940Z,40.58
2017-02-14T06:01:12.361Z,40.88
2017-02-14T06:02:12.400Z,40.88
2017-02-14T06:03:12.429Z,40.68
2017-02-14T06:04:12.443Z,40.49
2017-02-14T06:05:12.470Z,40.51
2017-02-14T06:06:12.496Z,40.31
2017-02-14T06:07:12.124Z,40.22
2017-02-14T06:08:12.538Z,40.12
2017-02-14T06:09:12.176Z,40.61
2017-02-14T06:10:12.199Z,40.61
2017-02-14T06:11:12.619Z,40.61
2017-02-14T06:12:12.250Z,40.51
2017-02-14T06:13:12.690Z,40.8
2017-02-14T06:14:12.694Z,40.7
2017-02-14T06:15:12.721Z,40.8
2017-02-14T06:16:12.346Z,40.41
2017-02-14T06:17:12.376Z,39.93
2017-02-14T06:18:12.404Z,40.12
2017-02-14T06:19:12.429Z,40.31
2017-02-14T06:20:12.857Z,40.12
2017-02-14T06:21:12.890Z,40.12
2017-02-14T06:22:12.500Z,40.12
2017-02-14T06:23:12.538Z,39.93
2017-02-14T06:24:12.563Z,40.03
2017-02-14T06:25:12.982Z,40.03
2017-02-14T06:26:12.611Z,39.93
2017-02-14T06:27:13.036Z,40.22
2017-02-14T06:28:13.315Z,39.93
2017-02-14T06:29:13.081Z,39.93
2017-02-14T06:30:12.717Z,39.64
2017-02-14T06:31:12.743Z,39.64
2017-02-14T06:32:13.161Z,39.74
2017-02-14T06:33:13.441Z,39.74
2017-02-14T06:34:13.221Z,39.54
2017-02-14T06:35:13.242Z,39.86
2017-02-14T06:36:13.267Z,39.74
2017-02-14T06:37:12.908Z,39.83
2017-02-14T06:38:13.579Z,39.76
2017-02-14T06:39:13.352Z,39.95
2017-02-14T06:40:12.989Z,40.05
2017-02-14T06:41:13.398Z,40.05
2017-02-14T06:42:13.422Z,39.86
2017-02-14T06:43:13.700Z,40.05
2017-02-14T06:44:13.080Z,39.56
2017-02-14T06:45:13.507Z,39.56
2017-02-14T06:46:13.535Z,39.18
2017-02-14T06:47:13.553Z,39.47
2017-02-14T06:48:14.105Z,39.18
2017-02-14T06:49:13.212Z,39.47
2017-02-14T06:50:13.245Z,39.37
2017-02-14T06:51:13.658Z,39.47
2017-02-14T06:52:13.694Z,38.99
2017-02-14T06:53:13.963Z,38.99
2017-02-14T06:54:13.737Z,39.37
2017-02-14T06:55:13.365Z,39.18
2017-02-14T06:56:13.789Z,39.56
2017-02-14T06:57:13.424Z,39.56
2017-02-14T06:58:14.105Z,39.28
2017-02-14T06:59:13.472Z,39.28
2017-02-14T07:00:13.488Z,39.28
2017-02-14T07:01:13.917Z,38.7
2017-02-14T07:02:13.549Z,39.18
2017-02-14T07:03:14.220Z,39.09
2017-02-14T07:04:13.998Z,38.89
2017-02-14T07:05:13.623Z,39.09
2017-02-14T07:06:14.058Z,38.99
2017-02-14T07:07:14.086Z,38.6
2017-02-14T07:08:14.107Z,38.6
2017-02-14T07:09:14.138Z,38.6
2017-02-14T07:10:13.764Z,39.09
2017-02-14T07:11:14.193Z,38.99
2017-02-14T07:12:13.809Z,38.99
2017-02-14T07:13:13.834Z,38.79
2017-02-14T07:14:14.251Z,38.99
2017-02-14T07:15:13.888Z,38.79
2017-02-14T07:16:13.916Z,38.7
2017-02-14T07:17:13.941Z,38.89
2017-02-14T07:18:14.362Z,38.79
2017-02-14T07:19:14.385Z,38.7
2017-02-14T07:20:14.017Z,38.51
2017-02-14T07:21:14.436Z,38.79
2017-02-14T07:22:14.083Z,38.6
2017-02-14T07:23:14.109Z,38.89
2017-02-14T07:24:14.525Z,38.6
2017-02-14T07:25:14.557Z,38.6
2017-02-14T07:26:14.575Z,38.99
2017-02-14T07:27:14.613Z,38.99
2017-02-14T07:28:14.652Z,38.79
2017-02-14T07:29:14.645Z,38.6
2017-02-14T07:30:14.678Z,38.89
2017-02-14T07:31:14.300Z,38.7
2017-02-14T07:32:14.728Z,38.89
2017-02-14T07:33:14.357Z,38.51
2017-02-14T07:34:14.641Z,38.51
2017-02-14T07:35:14.806Z,38.31
2017-02-14T07:36:14.840Z,37.93
2017-02-14T07:37:14.463Z,38.31
2017-02-14T07:38:14.885Z,37.74
2017-02-14T07:39:15.174Z,38.02
2017-02-14T07:40:14.937Z,37.83
2017-02-14T07:41:14.578Z,37.93
2017-02-14T07:42:14.592Z,37.93
2017-02-14T07:43:15.036Z,38.02
2017-02-14T07:44:15.289Z,37.95
2017-02-14T07:45:15.081Z,37.93
2017-02-14T07:46:15.099Z,37.85
2017-02-14T07:47:15.116Z,38.04
2017-02-14T07:48:14.752Z,37.95
2017-02-14T07:49:15.424Z,37.64
2017-02-14T07:50:15.197Z,37.66
2017-02-14T07:51:14.840Z,37.95
2017-02-14T07:52:15.263Z,37.95
2017-02-14T07:53:15.284Z,38.12
2017-02-14T07:54:15.160Z,38.24
2017-02-14T07:55:14.933Z,38.12
2017-02-14T07:56:15.359Z,38.24
2017-02-14T07:57:15.379Z,38.43
2017-02-14T07:58:15.411Z,38.33
2017-02-14T07:59:15.296Z,38.14
2017-02-14T08:00:15.456Z,38.33
2017-02-14T08:01:15.486Z,38.24
2017-02-14T08:02:15.527Z,38.31
2017-02-14T08:03:15.543Z,38.7
2017-02-14T08:04:15.426Z,38.72
2017-02-14T08:05:15.625Z,38.81
2017-02-14T08:06:15.222Z,38.72
2017-02-14T08:07:15.646Z,38.81
2017-02-14T08:08:15.278Z,38.81
2017-02-14T08:09:15.701Z,38.43
2017-02-14T08:10:15.724Z,38.72
2017-02-14T08:11:15.753Z,38.33
2017-02-14T08:12:15.777Z,38.91
2017-02-14T08:13:15.807Z,38.62
2017-02-14T08:14:15.844Z,38.79
2017-02-14T08:15:15.852Z,38.72
2017-02-14T08:16:15.886Z,38.72
2017-02-14T08:17:15.916Z,38.53
2017-02-14T08:18:15.550Z,38.91
2017-02-14T08:19:15.962Z,38.72
2017-02-14T08:20:15.991Z,38.62
2017-02-14T08:21:16.020Z,38.81
2017-02-14T08:22:15.648Z,38.53
2017-02-14T08:23:16.065Z,38.72
2017-02-14T08:24:16.094Z,38.91
2017-02-14T08:25:15.726Z,38.72
2017-02-14T08:26:16.148Z,39.01
2017-02-14T08:27:15.776Z,38.62
2017-02-14T08:28:15.804Z,38.62
2017-02-14T08:29:16.225Z,38.91
2017-02-14T08:30:16.257Z,38.62
2017-02-14T08:31:16.275Z,38.53
2017-02-14T08:32:15.908Z,38.91
2017-02-14T08:33:15.940Z,38.33
2017-02-14T08:34:16.356Z,38.45
2017-02-14T08:35:15.989Z,37.87
2017-02-14T08:36:16.011Z,37.31
2017-02-14T08:37:16.049Z,36.93
2017-02-14T08:38:16.086Z,36.55
2017-02-14T08:39:16.097Z,36.55
2017-02-14T08:40:16.370Z,35.9
2017-02-14T08:41:16.543Z,35.52
2017-02-14T08:42:16.179Z,35.44
2017-02-14T08:43:16.607Z,34.76
2017-02-14T08:44:16.628Z,35.05
2017-02-14T08:45:16.905Z,34.66
2017-02-14T08:46:16.690Z,34.2
2017-02-14T08:47:16.317Z,34.48
2017-02-14T08:48:16.340Z,34.29
2017-02-14T08:49:16.763Z,34.29
2017-02-14T08:50:16.646Z,34.2
2017-02-14T08:51:16.814Z,34.39
2017-02-14T08:52:16.449Z,34.97
2017-02-14T08:53:16.483Z,35.24
2017-02-14T08:54:16.496Z,34.86
2017-02-14T08:55:17.035Z,35.05
2017-02-14T08:56:16.553Z,35.61
2017-02-14T08:57:16.586Z,35.71
2017-02-14T08:58:16.610Z,35.9
2017-02-14T08:59:17.031Z,36.17
2017-02-14T09:00:17.317Z,36.36
2017-02-14T09:01:17.094Z,36.36
2017-02-14T09:02:16.725Z,36.36
2017-02-14T09:03:17.129Z,36.75
2017-02-14T09:04:16.771Z,36.65
2017-02-14T09:05:17.444Z,36.75
2017-02-14T09:06:17.220Z,36.93
2017-02-14T09:07:17.249Z,36.93
2017-02-14T09:08:16.878Z,37.31
2017-02-14T09:09:17.301Z,37.12
2017-02-14T09:10:17.587Z,37.21
2017-02-14T09:11:16.964Z,37.41
2017-02-14T09:12:17.392Z,37.79
2017-02-14T09:13:17.010Z,37.5
2017-02-14T09:14:17.037Z,37.6
2017-02-14T09:15:17.459Z,37.6
2017-02-14T09:16:17.090Z,37.89
2017-02-14T09:17:17.517Z,37.98
2017-02-14T09:18:17.544Z,37.89
2017-02-14T09:19:17.574Z,37.79
2017-02-14T09:20:17.607Z,37.89
2017-02-14T09:21:17.631Z,37.79
2017-02-14T09:22:17.647Z,37.7
2017-02-14T09:23:17.676Z,37.7
2017-02-14T09:24:17.305Z,38.18
2017-02-14T09:25:17.731Z,38.18
2017-02-14T09:26:17.758Z,37.98
2017-02-14T09:27:17.396Z,37.79
2017-02-14T09:28:17.812Z,37.79
2017-02-14T09:29:17.442Z,37.89
2017-02-14T09:30:17.862Z,37.98
2017-02-14T09:31:17.495Z,37.89
2017-02-14T09:32:17.531Z,37.89
2017-02-14T09:33:17.547Z,37.79
2017-02-14T09:34:17.600Z,37.89
2017-02-14T09:35:17.613Z,37.79
2017-02-14T09:36:18.035Z,37.79
2017-02-14T09:37:18.063Z,38.18
2017-02-14T09:38:18.079Z,37.98
2017-02-14T09:39:18.105Z,38.08
2017-02-14T09:40:18.134Z,38.08
2017-02-14T09:41:18.157Z,37.41
2017-02-14T09:42:18.186Z,37.79
2017-02-14T09:43:18.216Z,38.08
2017-02-14T09:44:18.245Z,37.6
2017-02-14T09:45:18.271Z,37.6
2017-02-14T09:46:18.305Z,37.6
2017-02-14T09:47:17.921Z,37.89
2017-02-14T09:48:18.343Z,37.7
2017-02-14T09:49:18.372Z,37.98
2017-02-14T09:50:18.404Z,37.98
2017-02-14T09:51:18.042Z,37.6
2017-02-14T09:52:18.454Z,37.7
2017-02-14T09:53:18.479Z,37.79
2017-02-14T09:54:18.108Z,37.5
2017-02-14T09:55:18.537Z,37.5
2017-02-14T09:56:18.418Z,37.6
2017-02-14T09:57:18.586Z,37.31
2017-02-14T09:58:18.611Z,37.31
2017-02-14T09:59:18.642Z,37.21
2017-02-14T10:00:18.671Z,37.41
2017-02-14T10:01:19.213Z,37.31
2017-02-14T10:02:18.335Z,37.71
2017-02-14T10:03:18.746Z,37.33
2017-02-14T10:04:18.779Z,37.04
2017-02-14T10:05:18.412Z,37.04
2017-02-14T10:06:19.092Z,37.33
2017-02-14T10:07:18.856Z,37.04
2017-02-14T10:08:18.887Z,36.94
2017-02-14T10:09:18.919Z,36.85
2017-02-14T10:10:18.939Z,37.04
2017-02-14T10:11:19.216Z,36.94
2017-02-14T10:12:18.609Z,37.04
2017-02-14T10:13:18.628Z,36.94
2017-02-14T10:14:19.070Z,37.13
2017-02-14T10:15:18.680Z,36.65
2017-02-14T10:16:19.352Z,36.85
2017-02-14T10:17:19.129Z,37.23
2017-02-14T10:18:18.758Z,36.75
2017-02-14T10:19:19.198Z,37.04
2017-02-14T10:20:18.815Z,37.13
2017-02-14T10:21:19.232Z,37.04
2017-02-14T10:22:18.876Z,37.13
2017-02-14T10:23:18.905Z,37.23
2017-02-14T10:24:18.927Z,37.33
2017-02-14T10:25:19.351Z,37.23
2017-02-14T10:26:18.984Z,37.13
2017-02-14T10:27:19.004Z,36.94
2017-02-14T10:28:19.423Z,37.52
2017-02-14T10:29:19.056Z,37.15
2017-02-14T10:30:19.486Z,37.52
2017-02-14T10:31:19.119Z,37.43
2017-02-14T10:32:19.532Z,37.04
2017-02-14T10:33:19.165Z,37.62
2017-02-14T10:34:19.589Z,37.52
2017-02-14T10:35:19.218Z,37.33
2017-02-14T10:36:19.643Z,37.43
2017-02-14T10:37:19.696Z,37.33
2017-02-14T10:38:19.700Z,37.43
2017-02-14T10:39:19.329Z,37.43
2017-02-14T10:40:20.253Z,37.23
2017-02-14T10:41:19.394Z,37.33
2017-02-14T10:42:19.807Z,37.13
2017-02-14T10:43:19.835Z,37.52
2017-02-14T10:44:19.469Z,37.33
2017-02-14T10:45:19.757Z,37.62
2017-02-14T10:46:19.922Z,37.23
2017-02-14T10:47:19.943Z,37.81
2017-02-14T10:48:19.572Z,37.71
2017-02-14T10:49:20.005Z,37.33
2017-02-14T10:50:19.629Z,37.71
2017-02-14T10:51:19.657Z,37.52
2017-02-14T10:52:20.078Z,37.71
2017-02-14T10:53:19.711Z,37.71
2017-02-14T10:54:20.148Z,37.71
2017-02-14T10:55:19.764Z,37.71
2017-02-14T10:56:20.185Z,37.71
2017-02-14T10:57:19.824Z,37.52
2017-02-14T10:58:19.887Z,38.01
2017-02-14T10:59:20.272Z,38.01
2017-02-14T11:00:20.313Z,37.63
2017-02-14T11:01:20.328Z,37.91
2017-02-14T11:02:20.362Z,37.71
2017-02-14T11:03:20.378Z,38.01
2017-02-14T11:04:20.017Z,38.2
2017-02-14T11:05:20.041Z,38.2
2017-02-14T11:06:20.065Z,38.2
2017-02-14T11:07:20.498Z,38.01
2017-02-14T11:08:20.134Z,37.93
2017-02-14T11:09:20.162Z,38.01
2017-02-14T11:10:20.175Z,37.93
2017-02-14T11:11:20.213Z,38.02
2017-02-14T11:12:20.249Z,38.02
2017-02-14T11:13:20.687Z,38.02
2017-02-14T11:14:20.286Z,37.52
2017-02-14T11:15:20.711Z,37.93
2017-02-14T11:16:20.340Z,37.93
2017-02-14T11:17:20.381Z,37.81
2017-02-14T11:18:20.806Z,37.93
2017-02-14T11:19:20.817Z,37.63
2017-02-14T11:20:20.448Z,38.02
2017-02-14T11:21:20.872Z,37.54
2017-02-14T11:22:20.506Z,37.63
2017-02-14T11:23:20.942Z,37.35
2017-02-14T11:24:20.974Z,37.35
2017-02-14T11:25:20.986Z,37.06
2017-02-14T11:26:21.014Z,37.45
2017-02-14T11:27:21.043Z,37.25
2017-02-14T11:28:20.669Z,37.06
2017-02-14T11:29:21.090Z,37.25
2017-02-14T11:30:21.122Z,37.06
2017-02-14T11:31:21.175Z,36.96
2017-02-14T11:32:21.192Z,37.06
2017-02-14T11:33:20.809Z,36.96
2017-02-14T11:34:20.838Z,36.67
2017-02-14T11:35:21.275Z,36.57
2017-02-14T11:36:21.286Z,36.59
2017-02-14T11:37:21.332Z,36.77
2017-02-14T11:38:20.952Z,36.69
2017-02-14T11:39:21.369Z,36.59
2017-02-14T11:40:21.410Z,36.3
2017-02-14T11:41:21.426Z,36.11
2017-02-14T11:42:21.459Z,36.5
2017-02-14T11:43:21.485Z,36.11
2017-02-14T11:44:21.122Z,36.4
2017-02-14T11:45:21.546Z,36.3
2017-02-14T11:46:21.571Z,36.4
2017-02-14T11:47:21.194Z,36.11
2017-02-14T11:48:21.228Z,36.5
2017-02-14T11:49:21.653Z,36.4
2017-02-14T11:50:21.689Z,36.4
2017-02-14T11:51:21.707Z,36.32
2017-02-14T11:52:21.734Z,36.5
2017-02-14T11:53:21.372Z,36.32
2017-02-14T11:54:21.796Z,36.32
2017-02-14T11:55:21.822Z,36.42
2017-02-14T11:56:21.846Z,36.22
2017-02-14T11:57:21.876Z,35.94
2017-02-14T11:58:21.903Z,36.22
2017-02-14T11:59:21.540Z,35.94
2017-02-14T12:00:21.560Z,35.64
2017-02-14T12:01:21.589Z,35.64
2017-02-14T12:02:22.014Z,35.74
2017-02-14T12:03:22.059Z,35.55
2017-02-14T12:04:22.075Z,35.74
2017-02-14T12:05:21.700Z,35.64
2017-02-14T12:06:21.734Z,35.64
2017-02-14T12:07:22.169Z,36.03
2017-02-14T12:08:22.186Z,36.03
2017-02-14T12:09:21.823Z,36.05
2017-02-14T12:10:21.837Z,35.47
2017-02-14T12:11:22.524Z,34.99
2017-02-14T12:12:22.314Z,35.08
2017-02-14T12:13:22.327Z,35.37
2017-02-14T12:14:21.967Z,35.18
2017-02-14T12:15:22.379Z,34.71
2017-02-14T12:16:22.265Z,34.04
2017-02-14T12:17:22.449Z,34.23
2017-02-14T12:18:22.473Z,34.13
2017-02-14T12:19:22.497Z,33.55
2017-02-14T12:20:22.523Z,33.67
2017-02-14T12:21:22.804Z,33.57
2017-02-14T12:22:22.584Z,33.09
2017-02-14T12:23:22.613Z,33.18
2017-02-14T12:24:22.241Z,33.09
2017-02-14T12:25:22.271Z,33.01
2017-02-14T12:26:22.548Z,32.62
2017-02-14T12:27:22.328Z,32.52
2017-02-14T12:28:22.756Z,32.71
2017-02-14T12:29:22.782Z,32.23
2017-02-14T12:30:22.434Z,32.15
2017-02-14T12:31:23.102Z,31.96
2017-02-14T12:32:22.471Z,31.86
2017-02-14T12:33:22.898Z,31.86
2017-02-14T12:34:22.918Z,31.47
2017-02-14T12:35:22.997Z,31.37
2017-02-14T12:36:22.838Z,31.37
2017-02-14T12:37:23.011Z,31.29
2017-02-14T12:38:23.039Z,31.09
2017-02-14T12:39:22.681Z,31.1
2017-02-14T12:40:22.701Z,31.1
2017-02-14T12:41:22.986Z,31.01
2017-02-14T12:42:23.167Z,30.81
2017-02-14T12:43:23.184Z,30.62
2017-02-14T12:44:23.220Z,30.52
2017-02-14T12:45:23.251Z,30.52
2017-02-14T12:46:23.526Z,30.62
2017-02-14T12:47:23.307Z,30.44
2017-02-14T12:48:23.335Z,30.54
2017-02-14T12:49:23.364Z,30.63
2017-02-14T12:50:23.031Z,30.24
2017-02-14T12:51:23.678Z,30.15
2017-02-14T12:52:23.059Z,30.24
2017-02-14T12:53:23.499Z,30.05
2017-02-14T12:54:23.515Z,29.66
2017-02-14T12:55:23.156Z,29.95
2017-02-14T12:56:23.430Z,29.66
2017-02-14T12:57:23.602Z,29.47
2017-02-14T12:58:23.637Z,29.66
2017-02-14T12:59:23.662Z,29.66